sensor_id;sensor_type;location;lat;lon;timestamp;temperature;humidity
10443;DHT22;5269;51.146;16.986;2023-04-25T00:01:49;9.70;99.90
10443;DHT22;5269;51.146;16.986;2023-04-25T00:04:16;9.80;1.00
10443;DHT22;5269;51.146;16.986;2023-04-25T00:06:48;9.80;1.00
10443;DHT22;5269;51.146;16.986;2023-04-25T00:09:18;9.80;99.90
10443;DHT22;5269;51.146;16.986;2023-04-25T00:11:45;9.80;99.90
10443;DHT22;5269;51.146;16.986;2023-04-25T00:14:12;9.80;99.90
10443;DHT22;5269;51.146;16.986;2023-04-25T00:16:41;9.80;99.90
10443;DHT22;5269;51.146;16.986;2023-04-25T00:19:14;9.70;99.90
10443;DHT22;5269;51.146;16.986;2023-04-25T00:21:44;9.70;99.90
10443;DHT22;5269;51.146;16.986;2023-04-25T00:24:21;9.70;1.00
10443;DHT22;5269;51.146;16.986;2023-04-25T00:26:55;9.60;1.00
10443;DHT22;5269;51.146;16.986;2023-04-25T00:29:22;9.60;1.00
10443;DHT22;5269;51.146;16.986;2023-04-25T00:32:04;9.60;1.00
10443;DHT22;5269;51.146;16.986;2023-04-25T00:34:48;9.70;1.00
10443;DHT22;5269;51.146;16.986;2023-04-25T00:37:23;9.60;99.90
10443;DHT22;5269;51.146;16.986;2023-04-25T00:39:58;9.70;1.00
10443;DHT22;5269;51.146;16.986;2023-04-25T00:42:27;9.60;1.00
10443;DHT22;5269;51.146;16.986;2023-04-25T00:44:55;9.70;99.90
10443;DHT22;5269;51.146;16.986;2023-04-25T00:47:28;9.70;1.00
10443;DHT22;5269;51.146;16.986;2023-04-25T00:50:07;9.60;99.90
10443;DHT22;5269;51.146;16.986;2023-04-25T00:52:44;9.50;99.90
10443;DHT22;5269;51.146;16.986;2023-04-25T00:55:15;9.50;99.90
10443;DHT22;5269;51.146;16.986;2023-04-25T00:57:43;9.50;99.90
10443;DHT22;5269;51.146;16.986;2023-04-25T01:00:13;9.40;1.00
10443;DHT22;5269;51.146;16.986;2023-04-25T01:02:41;9.50;95.20
10443;DHT22;5269;51.146;16.986;2023-04-25T01:05:08;9.40;1.00
10443;DHT22;5269;51.146;16.986;2023-04-25T01:07:35;9.40;1.00
10443;DHT22;5269;51.146;16.986;2023-04-25T01:10:04;9.50;1.00
10443;DHT22;5269;51.146;16.986;2023-04-25T01:12:33;9.40;1.00
10443;DHT22;5269;51.146;16.986;2023-04-25T01:15:00;9.40;1.00
10443;DHT22;5269;51.146;16.986;2023-04-25T01:17:27;9.40;1.00
10443;DHT22;5269;51.146;16.986;2023-04-25T01:19:54;9.40;1.00
10443;DHT22;5269;51.146;16.986;2023-04-25T01:22:23;9.30;1.00
10443;DHT22;5269;51.146;16.986;2023-04-25T01:24:50;9.40;1.00
10443;DHT22;5269;51.146;16.986;2023-04-25T01:27:17;9.30;1.00
10443;DHT22;5269;51.146;16.986;2023-04-25T01:29:44;9.40;1.00
10443;DHT22;5269;51.146;16.986;2023-04-25T01:32:13;9.30;1.00
10443;DHT22;5269;51.146;16.986;2023-04-25T01:34:40;9.30;99.90
10443;DHT22;5269;51.146;16.986;2023-04-25T01:37:07;9.30;1.00
10443;DHT22;5269;51.146;16.986;2023-04-25T01:39:35;9.30;1.00
10443;DHT22;5269;51.146;16.986;2023-04-25T01:42:02;9.30;1.00
10443;DHT22;5269;51.146;16.986;2023-04-25T01:44:29;9.30;1.00
10443;DHT22;5269;51.146;16.986;2023-04-25T01:46:56;9.30;99.90
10443;DHT22;5269;51.146;16.986;2023-04-25T01:49:23;9.20;1.00
10443;DHT22;5269;51.146;16.986;2023-04-25T01:51:50;9.20;1.00
10443;DHT22;5269;51.146;16.986;2023-04-25T01:54:18;9.20;99.90
10443;DHT22;5269;51.146;16.986;2023-04-25T01:56:51;9.20;99.90
10443;DHT22;5269;51.146;16.986;2023-04-25T01:59:19;9.20;1.00
10443;DHT22;5269;51.146;16.986;2023-04-25T02:01:47;9.20;1.00
10443;DHT22;5269;51.146;16.986;2023-04-25T02:04:14;9.10;1.00
10443;DHT22;5269;51.146;16.986;2023-04-25T02:06:41;9.10;1.00
10443;DHT22;5269;51.146;16.986;2023-04-25T02:09:08;9.10;1.00
10443;DHT22;5269;51.146;16.986;2023-04-25T02:11:35;9.10;1.00
10443;DHT22;5269;51.146;16.986;2023-04-25T02:14:03;9.00;1.00
10443;DHT22;5269;51.146;16.986;2023-04-25T02:16:30;9.00;1.00
10443;DHT22;5269;51.146;16.986;2023-04-25T02:18:57;8.90;1.00
10443;DHT22;5269;51.146;16.986;2023-04-25T02:21:24;8.90;1.00
10443;DHT22;5269;51.146;16.986;2023-04-25T02:23:52;8.90;1.00
10443;DHT22;5269;51.146;16.986;2023-04-25T02:26:19;8.80;1.00
10443;DHT22;5269;51.146;16.986;2023-04-25T02:28:46;8.90;1.00
10443;DHT22;5269;51.146;16.986;2023-04-25T02:31:14;8.80;1.00
10443;DHT22;5269;51.146;16.986;2023-04-25T02:33:41;8.80;1.00
10443;DHT22;5269;51.146;16.986;2023-04-25T02:36:08;8.80;1.00
10443;DHT22;5269;51.146;16.986;2023-04-25T02:38:35;8.70;99.90
10443;DHT22;5269;51.146;16.986;2023-04-25T02:41:02;8.80;99.90
10443;DHT22;5269;51.146;16.986;2023-04-25T02:43:29;8.70;1.00
10443;DHT22;5269;51.146;16.986;2023-04-25T02:45:56;8.70;99.90
10443;DHT22;5269;51.146;16.986;2023-04-25T02:48:24;8.70;99.90
10443;DHT22;5269;51.146;16.986;2023-04-25T02:50:51;8.60;1.00
10443;DHT22;5269;51.146;16.986;2023-04-25T02:53:18;8.60;1.00
10443;DHT22;5269;51.146;16.986;2023-04-25T02:55:45;8.50;1.00
10443;DHT22;5269;51.146;16.986;2023-04-25T02:58:12;8.70;1.00
10443;DHT22;5269;51.146;16.986;2023-04-25T03:00:39;8.70;1.00
10443;DHT22;5269;51.146;16.986;2023-04-25T03:03:05;8.70;1.00
10443;DHT22;5269;51.146;16.986;2023-04-25T03:05:34;8.50;1.00
10443;DHT22;5269;51.146;16.986;2023-04-25T03:08:01;8.50;1.00
10443;DHT22;5269;51.146;16.986;2023-04-25T03:10:28;8.50;1.00
10443;DHT22;5269;51.146;16.986;2023-04-25T03:12:55;8.50;99.90
10443;DHT22;5269;51.146;16.986;2023-04-25T03:15:22;8.40;99.90
10443;DHT22;5269;51.146;16.986;2023-04-25T03:17:49;8.30;1.00
10443;DHT22;5269;51.146;16.986;2023-04-25T03:20:16;8.30;1.00
10443;DHT22;5269;51.146;16.986;2023-04-25T03:22:44;8.40;1.00
10443;DHT22;5269;51.146;16.986;2023-04-25T03:25:11;8.30;1.00
10443;DHT22;5269;51.146;16.986;2023-04-25T03:27:38;8.30;1.00
10443;DHT22;5269;51.146;16.986;2023-04-25T03:30:06;8.20;1.00
10443;DHT22;5269;51.146;16.986;2023-04-25T03:32:33;8.10;1.00
10443;DHT22;5269;51.146;16.986;2023-04-25T03:35:00;8.00;99.90
10443;DHT22;5269;51.146;16.986;2023-04-25T03:37:27;8.10;99.90
10443;DHT22;5269;51.146;16.986;2023-04-25T03:39:55;8.10;99.90
10443;DHT22;5269;51.146;16.986;2023-04-25T03:42:22;8.20;1.00
10443;DHT22;5269;51.146;16.986;2023-04-25T03:44:49;8.20;99.90
10443;DHT22;5269;51.146;16.986;2023-04-25T03:47:16;8.00;1.00
10443;DHT22;5269;51.146;16.986;2023-04-25T03:49:43;8.10;1.00
10443;DHT22;5269;51.146;16.986;2023-04-25T03:52:10;8.00;99.90
10443;DHT22;5269;51.146;16.986;2023-04-25T03:54:37;7.90;99.90
10443;DHT22;5269;51.146;16.986;2023-04-25T03:57:05;7.80;1.00
10443;DHT22;5269;51.146;16.986;2023-04-25T03:59:32;7.90;93.00
10443;DHT22;5269;51.146;16.986;2023-04-25T04:01:58;7.80;99.90
10443;DHT22;5269;51.146;16.986;2023-04-25T04:04:25;7.90;1.00
10443;DHT22;5269;51.146;16.986;2023-04-25T04:06:52;7.80;99.90
10443;DHT22;5269;51.146;16.986;2023-04-25T04:09:19;7.90;1.00
10443;DHT22;5269;51.146;16.986;2023-04-25T04:11:46;7.80;1.00
10443;DHT22;5269;51.146;16.986;2023-04-25T04:14:14;8.00;1.00
10443;DHT22;5269;51.146;16.986;2023-04-25T04:16:42;8.00;99.90
10443;DHT22;5269;51.146;16.986;2023-04-25T04:19:09;8.00;1.00
10443;DHT22;5269;51.146;16.986;2023-04-25T04:21:40;7.90;6.80
10443;DHT22;5269;51.146;16.986;2023-04-25T04:24:07;7.90;1.00
10443;DHT22;5269;51.146;16.986;2023-04-25T04:26:35;8.00;99.90
10443;DHT22;5269;51.146;16.986;2023-04-25T04:29:04;8.00;99.90
10443;DHT22;5269;51.146;16.986;2023-04-25T04:31:32;8.10;1.00
10443;DHT22;5269;51.146;16.986;2023-04-25T04:33:59;8.10;99.90
10443;DHT22;5269;51.146;16.986;2023-04-25T04:36:27;8.00;1.00
10443;DHT22;5269;51.146;16.986;2023-04-25T04:38:54;8.00;33.30
10443;DHT22;5269;51.146;16.986;2023-04-25T04:41:21;7.90;1.00
10443;DHT22;5269;51.146;16.986;2023-04-25T04:43:48;7.90;1.00
10443;DHT22;5269;51.146;16.986;2023-04-25T04:46:15;7.90;1.00
10443;DHT22;5269;51.146;16.986;2023-04-25T04:48:45;7.90;1.00
10443;DHT22;5269;51.146;16.986;2023-04-25T04:51:12;8.00;1.00
10443;DHT22;5269;51.146;16.986;2023-04-25T04:53:39;8.00;1.00
10443;DHT22;5269;51.146;16.986;2023-04-25T04:56:06;8.10;99.90
10443;DHT22;5269;51.146;16.986;2023-04-25T04:58:33;8.00;1.00
10443;DHT22;5269;51.146;16.986;2023-04-25T05:01:02;8.00;1.00
10443;DHT22;5269;51.146;16.986;2023-04-25T05:03:28;8.10;1.00
10443;DHT22;5269;51.146;16.986;2023-04-25T05:05:57;8.20;1.00
10443;DHT22;5269;51.146;16.986;2023-04-25T05:08:24;8.20;1.00
10443;DHT22;5269;51.146;16.986;2023-04-25T05:10:51;8.30;1.00
10443;DHT22;5269;51.146;16.986;2023-04-25T05:13:18;8.40;1.00
10443;DHT22;5269;51.146;16.986;2023-04-25T05:15:45;8.30;99.90
10443;DHT22;5269;51.146;16.986;2023-04-25T05:21:40;8.30;1.00
10443;DHT22;5269;51.146;16.986;2023-04-25T05:24:09;8.40;1.00
10443;DHT22;5269;51.146;16.986;2023-04-25T05:26:37;8.50;1.00
10443;DHT22;5269;51.146;16.986;2023-04-25T05:29:06;8.60;1.00
10443;DHT22;5269;51.146;16.986;2023-04-25T05:31:33;8.70;99.90
10443;DHT22;5269;51.146;16.986;2023-04-25T05:41:10;8.70;99.90
10443;DHT22;5269;51.146;16.986;2023-04-25T05:43:51;8.70;99.90
10443;DHT22;5269;51.146;16.986;2023-04-25T05:46:18;8.70;1.00
10443;DHT22;5269;51.146;16.986;2023-04-25T05:48:45;8.70;99.90
10443;DHT22;5269;51.146;16.986;2023-04-25T05:52:06;8.70;99.90
10443;DHT22;5269;51.146;16.986;2023-04-25T06:01:08;9.10;26.90
10443;DHT22;5269;51.146;16.986;2023-04-25T06:03:35;9.10;99.90
10443;DHT22;5269;51.146;16.986;2023-04-25T06:06:21;9.20;1.00
10443;DHT22;5269;51.146;16.986;2023-04-25T06:09:11;9.10;1.00
10443;DHT22;5269;51.146;16.986;2023-04-25T06:11:37;9.10;1.00
10443;DHT22;5269;51.146;16.986;2023-04-25T06:14:06;9.20;1.00
10443;DHT22;5269;51.146;16.986;2023-04-25T06:16:35;9.30;1.00
10443;DHT22;5269;51.146;16.986;2023-04-25T06:19:02;9.30;1.00
10443;DHT22;5269;51.146;16.986;2023-04-25T06:21:29;9.50;1.00
10443;DHT22;5269;51.146;16.986;2023-04-25T06:23:57;9.50;1.00
10443;DHT22;5269;51.146;16.986;2023-04-25T06:26:24;9.50;99.90
10443;DHT22;5269;51.146;16.986;2023-04-25T06:28:51;9.60;99.90
10443;DHT22;5269;51.146;16.986;2023-04-25T06:31:17;9.40;99.90
10443;DHT22;5269;51.146;16.986;2023-04-25T06:33:46;9.50;99.90
10443;DHT22;5269;51.146;16.986;2023-04-25T06:40:25;9.40;99.90
10443;DHT22;5269;51.146;16.986;2023-04-25T06:42:52;9.50;84.00
10443;DHT22;5269;51.146;16.986;2023-04-25T06:45:19;9.70;99.90
10443;DHT22;5269;51.146;16.986;2023-04-25T06:47:46;9.90;86.60
10443;DHT22;5269;51.146;16.986;2023-04-25T06:50:14;9.80;1.00
10443;DHT22;5269;51.146;16.986;2023-04-25T06:52:41;10.00;1.00
10443;DHT22;5269;51.146;16.986;2023-04-25T06:55:08;10.10;1.00
10443;DHT22;5269;51.146;16.986;2023-04-25T06:57:38;10.20;1.00
10443;DHT22;5269;51.146;16.986;2023-04-25T07:00:06;10.30;1.00
10443;DHT22;5269;51.146;16.986;2023-04-25T07:02:35;10.30;1.00
10443;DHT22;5269;51.146;16.986;2023-04-25T07:05:02;10.40;1.00
10443;DHT22;5269;51.146;16.986;2023-04-25T07:07:31;10.50;1.00
10443;DHT22;5269;51.146;16.986;2023-04-25T07:10:00;10.70;1.00
10443;DHT22;5269;51.146;16.986;2023-04-25T07:15:57;10.60;99.90
10443;DHT22;5269;51.146;16.986;2023-04-25T07:25:23;10.50;99.90
10443;DHT22;5269;51.146;16.986;2023-04-25T07:27:50;10.30;99.90
10443;DHT22;5269;51.146;16.986;2023-04-25T07:30:44;10.30;99.90
10443;DHT22;5269;51.146;16.986;2023-04-25T07:33:11;10.40;99.90
10443;DHT22;5269;51.146;16.986;2023-04-25T07:35:38;10.30;99.90
10443;DHT22;5269;51.146;16.986;2023-04-25T07:38:05;10.40;99.90
10443;DHT22;5269;51.146;16.986;2023-04-25T07:40:34;10.30;99.90
10443;DHT22;5269;51.146;16.986;2023-04-25T07:43:01;10.20;99.90
10443;DHT22;5269;51.146;16.986;2023-04-25T07:45:28;10.40;99.90
10443;DHT22;5269;51.146;16.986;2023-04-25T07:47:55;10.50;99.90
10443;DHT22;5269;51.146;16.986;2023-04-25T07:50:22;10.60;99.90
10443;DHT22;5269;51.146;16.986;2023-04-25T07:52:52;10.60;99.90
10443;DHT22;5269;51.146;16.986;2023-04-25T07:55:22;10.60;99.90
10443;DHT22;5269;51.146;16.986;2023-04-25T07:57:50;10.60;99.90
10443;DHT22;5269;51.146;16.986;2023-04-25T08:00:18;10.60;99.90
10443;DHT22;5269;51.146;16.986;2023-04-25T08:02:45;10.50;99.90
10443;DHT22;5269;51.146;16.986;2023-04-25T08:08:41;10.50;99.90
10443;DHT22;5269;51.146;16.986;2023-04-25T08:11:08;10.50;99.90
10443;DHT22;5269;51.146;16.986;2023-04-25T08:13:37;10.60;99.90
10443;DHT22;5269;51.146;16.986;2023-04-25T08:16:04;10.60;99.90
10443;DHT22;5269;51.146;16.986;2023-04-25T08:18:31;10.60;99.90
10443;DHT22;5269;51.146;16.986;2023-04-25T08:20:58;10.70;99.90
10443;DHT22;5269;51.146;16.986;2023-04-25T08:23:25;10.70;99.90
10443;DHT22;5269;51.146;16.986;2023-04-25T08:25:52;10.60;99.90
10443;DHT22;5269;51.146;16.986;2023-04-25T08:28:19;10.50;99.90
10443;DHT22;5269;51.146;16.986;2023-04-25T08:30:47;10.50;99.90
10443;DHT22;5269;51.146;16.986;2023-04-25T08:33:14;10.50;99.90
10443;DHT22;5269;51.146;16.986;2023-04-25T08:35:41;10.60;99.90
10443;DHT22;5269;51.146;16.986;2023-04-25T08:38:08;10.70;99.90
10443;DHT22;5269;51.146;16.986;2023-04-25T08:40:38;10.70;99.90
10443;DHT22;5269;51.146;16.986;2023-04-25T08:43:06;10.60;99.90
10443;DHT22;5269;51.146;16.986;2023-04-25T08:45:39;10.70;99.90
10443;DHT22;5269;51.146;16.986;2023-04-25T08:48:12;10.80;99.90
10443;DHT22;5269;51.146;16.986;2023-04-25T08:50:43;10.80;99.90
10443;DHT22;5269;51.146;16.986;2023-04-25T08:53:12;11.00;99.90
10443;DHT22;5269;51.146;16.986;2023-04-25T08:55:42;11.20;99.90
10443;DHT22;5269;51.146;16.986;2023-04-25T08:58:10;11.30;99.90
10443;DHT22;5269;51.146;16.986;2023-04-25T09:00:37;11.30;99.90
10443;DHT22;5269;51.146;16.986;2023-04-25T09:03:05;11.70;99.90
10443;DHT22;5269;51.146;16.986;2023-04-25T09:05:33;12.00;82.40
10443;DHT22;5269;51.146;16.986;2023-04-25T09:08:01;12.20;39.90
10443;DHT22;5269;51.146;16.986;2023-04-25T09:10:28;12.00;26.60
10443;DHT22;5269;51.146;16.986;2023-04-25T09:13:03;12.00;27.00
10443;DHT22;5269;51.146;16.986;2023-04-25T09:15:31;11.60;1.00
10443;DHT22;5269;51.146;16.986;2023-04-25T09:17:58;11.50;40.80
10443;DHT22;5269;51.146;16.986;2023-04-25T09:20:28;11.50;41.40
10443;DHT22;5269;51.146;16.986;2023-04-25T09:23:04;11.50;46.30
10443;DHT22;5269;51.146;16.986;2023-04-25T09:25:36;11.40;87.80
10443;DHT22;5269;51.146;16.986;2023-04-25T09:28:05;11.40;99.90
10443;DHT22;5269;51.146;16.986;2023-04-25T09:30:34;11.40;99.90
10443;DHT22;5269;51.146;16.986;2023-04-25T09:33:04;11.60;90.60
10443;DHT22;5269;51.146;16.986;2023-04-25T09:35:36;11.50;51.20
10443;DHT22;5269;51.146;16.986;2023-04-25T09:38:12;11.30;57.00
10443;DHT22;5269;51.146;16.986;2023-04-25T09:40:40;11.30;99.50
10443;DHT22;5269;51.146;16.986;2023-04-25T09:43:12;11.30;99.90
10443;DHT22;5269;51.146;16.986;2023-04-25T09:45:45;11.40;99.90
10443;DHT22;5269;51.146;16.986;2023-04-25T09:48:17;11.70;79.00
10443;DHT22;5269;51.146;16.986;2023-04-25T09:50:44;11.60;53.70
10443;DHT22;5269;51.146;16.986;2023-04-25T09:53:12;11.80;26.70
10443;DHT22;5269;51.146;16.986;2023-04-25T09:55:40;11.60;18.60
10443;DHT22;5269;51.146;16.986;2023-04-25T09:58:10;11.80;1.00
10443;DHT22;5269;51.146;16.986;2023-04-25T10:00:38;11.90;1.00
10443;DHT22;5269;51.146;16.986;2023-04-25T10:03:06;12.20;1.00
10443;DHT22;5269;51.146;16.986;2023-04-25T10:05:39;12.50;1.00
10443;DHT22;5269;51.146;16.986;2023-04-25T10:08:14;12.60;1.00
10443;DHT22;5269;51.146;16.986;2023-04-25T10:10:42;12.70;1.00
10443;DHT22;5269;51.146;16.986;2023-04-25T10:13:11;12.40;1.00
10443;DHT22;5269;51.146;16.986;2023-04-25T10:15:40;12.30;1.00
10443;DHT22;5269;51.146;16.986;2023-04-25T10:18:08;12.20;1.00
10443;DHT22;5269;51.146;16.986;2023-04-25T10:20:35;12.00;1.00
10443;DHT22;5269;51.146;16.986;2023-04-25T10:23:09;11.90;1.00
10443;DHT22;5269;51.146;16.986;2023-04-25T10:25:40;12.10;1.00
10443;DHT22;5269;51.146;16.986;2023-04-25T10:28:08;12.20;1.00
10443;DHT22;5269;51.146;16.986;2023-04-25T10:30:35;12.40;1.00
10443;DHT22;5269;51.146;16.986;2023-04-25T10:33:16;12.20;1.00
10443;DHT22;5269;51.146;16.986;2023-04-25T10:35:45;11.90;1.00
10443;DHT22;5269;51.146;16.986;2023-04-25T10:38:14;12.00;1.00
10443;DHT22;5269;51.146;16.986;2023-04-25T10:41:02;12.00;1.00
10443;DHT22;5269;51.146;16.986;2023-04-25T10:43:39;12.20;1.00
10443;DHT22;5269;51.146;16.986;2023-04-25T10:46:14;12.40;1.00
10443;DHT22;5269;51.146;16.986;2023-04-25T10:48:49;12.50;1.00
10443;DHT22;5269;51.146;16.986;2023-04-25T10:51:21;12.00;1.00
10443;DHT22;5269;51.146;16.986;2023-04-25T10:53:57;12.30;1.00
10443;DHT22;5269;51.146;16.986;2023-04-25T10:56:27;12.80;1.00
10443;DHT22;5269;51.146;16.986;2023-04-25T10:59:08;12.80;1.00
10443;DHT22;5269;51.146;16.986;2023-04-25T11:01:37;12.90;1.00
10443;DHT22;5269;51.146;16.986;2023-04-25T11:04:05;13.00;1.00
10443;DHT22;5269;51.146;16.986;2023-04-25T11:06:42;13.10;1.00
10443;DHT22;5269;51.146;16.986;2023-04-25T11:09:12;13.10;1.00
10443;DHT22;5269;51.146;16.986;2023-04-25T11:11:40;12.90;1.00
10443;DHT22;5269;51.146;16.986;2023-04-25T11:14:07;12.90;1.00
10443;DHT22;5269;51.146;16.986;2023-04-25T11:16:34;12.90;1.00
10443;DHT22;5269;51.146;16.986;2023-04-25T11:19:02;13.10;1.00
10443;DHT22;5269;51.146;16.986;2023-04-25T11:21:29;13.30;1.00
10443;DHT22;5269;51.146;16.986;2023-04-25T11:23:57;13.10;1.00
10443;DHT22;5269;51.146;16.986;2023-04-25T11:26:24;12.80;1.00
10443;DHT22;5269;51.146;16.986;2023-04-25T11:28:57;12.70;1.00
10443;DHT22;5269;51.146;16.986;2023-04-25T11:31:25;12.70;1.00
10443;DHT22;5269;51.146;16.986;2023-04-25T11:33:53;12.50;1.00
10443;DHT22;5269;51.146;16.986;2023-04-25T11:36:23;12.50;1.00
10443;DHT22;5269;51.146;16.986;2023-04-25T11:38:51;12.60;1.00
10443;DHT22;5269;51.146;16.986;2023-04-25T11:41:18;12.70;1.00
10443;DHT22;5269;51.146;16.986;2023-04-25T11:43:45;12.70;1.00
10443;DHT22;5269;51.146;16.986;2023-04-25T11:46:15;12.60;1.00
10443;DHT22;5269;51.146;16.986;2023-04-25T11:48:44;12.60;1.00
10443;DHT22;5269;51.146;16.986;2023-04-25T11:51:12;12.70;1.00
10443;DHT22;5269;51.146;16.986;2023-04-25T11:53:41;12.70;1.00
10443;DHT22;5269;51.146;16.986;2023-04-25T11:56:09;12.70;1.00
10443;DHT22;5269;51.146;16.986;2023-04-25T11:58:55;13.00;1.00
10443;DHT22;5269;51.146;16.986;2023-04-25T12:01:27;12.90;1.00
10443;DHT22;5269;51.146;16.986;2023-04-25T12:03:54;12.90;1.00
10443;DHT22;5269;51.146;16.986;2023-04-25T12:06:25;12.90;1.00
10443;DHT22;5269;51.146;16.986;2023-04-25T12:09:02;12.60;1.00
10443;DHT22;5269;51.146;16.986;2023-04-25T12:11:30;12.80;1.00
10443;DHT22;5269;51.146;16.986;2023-04-25T12:14:02;12.90;1.00
10443;DHT22;5269;51.146;16.986;2023-04-25T12:16:40;12.80;1.00
10443;DHT22;5269;51.146;16.986;2023-04-25T12:19:08;12.90;1.00
10443;DHT22;5269;51.146;16.986;2023-04-25T12:21:35;12.80;1.00
10443;DHT22;5269;51.146;16.986;2023-04-25T12:24:12;12.90;1.00
10443;DHT22;5269;51.146;16.986;2023-04-25T12:26:47;12.80;1.00
10443;DHT22;5269;51.146;16.986;2023-04-25T12:29:16;12.80;1.00
10443;DHT22;5269;51.146;16.986;2023-04-25T12:31:48;13.00;1.00
10443;DHT22;5269;51.146;16.986;2023-04-25T12:34:15;13.20;1.00
10443;DHT22;5269;51.146;16.986;2023-04-25T12:36:43;13.10;1.00
10443;DHT22;5269;51.146;16.986;2023-04-25T12:39:26;13.10;1.00
10443;DHT22;5269;51.146;16.986;2023-04-25T12:41:53;12.90;1.00
10443;DHT22;5269;51.146;16.986;2023-04-25T12:44:33;12.90;1.00
10443;DHT22;5269;51.146;16.986;2023-04-25T12:47:03;12.90;1.00
10443;DHT22;5269;51.146;16.986;2023-04-25T12:49:30;12.80;1.00
10443;DHT22;5269;51.146;16.986;2023-04-25T12:51:58;12.80;1.00
10443;DHT22;5269;51.146;16.986;2023-04-25T12:54:25;12.70;1.00
10443;DHT22;5269;51.146;16.986;2023-04-25T12:56:52;13.00;1.00
10443;DHT22;5269;51.146;16.986;2023-04-25T12:59:21;13.00;1.00
10443;DHT22;5269;51.146;16.986;2023-04-25T13:01:48;12.80;1.00
10443;DHT22;5269;51.146;16.986;2023-04-25T13:04:16;12.70;1.00
10443;DHT22;5269;51.146;16.986;2023-04-25T13:06:47;12.60;1.00
10443;DHT22;5269;51.146;16.986;2023-04-25T13:09:14;12.50;1.00
10443;DHT22;5269;51.146;16.986;2023-04-25T13:11:41;12.40;1.00
10443;DHT22;5269;51.146;16.986;2023-04-25T13:14:09;12.40;1.00
10443;DHT22;5269;51.146;16.986;2023-04-25T13:16:36;12.60;1.00
10443;DHT22;5269;51.146;16.986;2023-04-25T13:19:03;13.00;1.00
10443;DHT22;5269;51.146;16.986;2023-04-25T13:21:32;13.40;1.00
10443;DHT22;5269;51.146;16.986;2023-04-25T13:24:01;13.40;1.00
10443;DHT22;5269;51.146;16.986;2023-04-25T13:26:28;13.10;1.00
10443;DHT22;5269;51.146;16.986;2023-04-25T13:29:01;13.10;1.00
10443;DHT22;5269;51.146;16.986;2023-04-25T13:31:29;13.10;1.00
10443;DHT22;5269;51.146;16.986;2023-04-25T13:33:56;13.00;1.00
10443;DHT22;5269;51.146;16.986;2023-04-25T13:36:24;12.80;1.00
10443;DHT22;5269;51.146;16.986;2023-04-25T13:38:53;12.90;1.00
10443;DHT22;5269;51.146;16.986;2023-04-25T13:41:19;12.90;1.00
10443;DHT22;5269;51.146;16.986;2023-04-25T13:43:46;12.80;1.00
10443;DHT22;5269;51.146;16.986;2023-04-25T13:46:17;13.00;1.00
10443;DHT22;5269;51.146;16.986;2023-04-25T13:48:44;12.80;1.00
10443;DHT22;5269;51.146;16.986;2023-04-25T13:51:15;12.90;1.00
10443;DHT22;5269;51.146;16.986;2023-04-25T13:53:49;13.00;1.00
10443;DHT22;5269;51.146;16.986;2023-04-25T14:01:41;13.60;1.00
10443;DHT22;5269;51.146;16.986;2023-04-25T14:04:08;13.80;1.00
10443;DHT22;5269;51.146;16.986;2023-04-25T14:06:37;13.80;1.00
10443;DHT22;5269;51.146;16.986;2023-04-25T14:09:04;13.60;1.00
10443;DHT22;5269;51.146;16.986;2023-04-25T14:11:32;13.40;1.00
10443;DHT22;5269;51.146;16.986;2023-04-25T14:13:59;13.30;1.00
10443;DHT22;5269;51.146;16.986;2023-04-25T14:16:26;13.20;1.00
10443;DHT22;5269;51.146;16.986;2023-04-25T14:18:54;13.00;1.00
10443;DHT22;5269;51.146;16.986;2023-04-25T14:21:21;13.00;1.00
10443;DHT22;5269;51.146;16.986;2023-04-25T14:23:48;13.00;1.00
10443;DHT22;5269;51.146;16.986;2023-04-25T14:26:15;13.10;1.00
10443;DHT22;5269;51.146;16.986;2023-04-25T14:28:42;13.10;1.00
10443;DHT22;5269;51.146;16.986;2023-04-25T14:31:09;13.30;1.00
10443;DHT22;5269;51.146;16.986;2023-04-25T14:33:36;13.10;1.00
10443;DHT22;5269;51.146;16.986;2023-04-25T14:36:07;12.90;1.00
10443;DHT22;5269;51.146;16.986;2023-04-25T14:38:34;12.90;1.00
10443;DHT22;5269;51.146;16.986;2023-04-25T14:41:01;12.90;1.00
10443;DHT22;5269;51.146;16.986;2023-04-25T14:43:28;12.80;1.00
10443;DHT22;5269;51.146;16.986;2023-04-25T14:45:54;12.60;1.00
10443;DHT22;5269;51.146;16.986;2023-04-25T14:48:21;12.40;1.00
10443;DHT22;5269;51.146;16.986;2023-04-25T14:50:48;12.20;1.00
10443;DHT22;5269;51.146;16.986;2023-04-25T14:53:16;12.00;1.00
10443;DHT22;5269;51.146;16.986;2023-04-25T14:55:43;12.00;1.00
10443;DHT22;5269;51.146;16.986;2023-04-25T14:58:10;12.00;1.00
10443;DHT22;5269;51.146;16.986;2023-04-25T15:00:37;11.90;1.00
10443;DHT22;5269;51.146;16.986;2023-04-25T15:03:04;11.90;1.00
10443;DHT22;5269;51.146;16.986;2023-04-25T15:05:34;11.90;1.00
10443;DHT22;5269;51.146;16.986;2023-04-25T15:08:02;11.80;1.00
10443;DHT22;5269;51.146;16.986;2023-04-25T15:10:30;11.80;1.00
10443;DHT22;5269;51.146;16.986;2023-04-25T15:12:57;11.60;1.00
10443;DHT22;5269;51.146;16.986;2023-04-25T15:15:24;11.70;1.00
10443;DHT22;5269;51.146;16.986;2023-04-25T15:17:52;11.70;1.00
10443;DHT22;5269;51.146;16.986;2023-04-25T15:20:20;11.70;1.00
10443;DHT22;5269;51.146;16.986;2023-04-25T15:22:47;11.60;1.00
10443;DHT22;5269;51.146;16.986;2023-04-25T15:25:15;11.70;1.00
10443;DHT22;5269;51.146;16.986;2023-04-25T15:27:44;11.70;1.00
10443;DHT22;5269;51.146;16.986;2023-04-25T15:30:14;11.70;1.00
10443;DHT22;5269;51.146;16.986;2023-04-25T15:32:42;11.60;1.00
10443;DHT22;5269;51.146;16.986;2023-04-25T15:35:09;11.70;1.00
10443;DHT22;5269;51.146;16.986;2023-04-25T15:37:37;11.70;1.00
10443;DHT22;5269;51.146;16.986;2023-04-25T15:40:06;11.70;1.00
10443;DHT22;5269;51.146;16.986;2023-04-25T15:42:35;11.80;1.00
10443;DHT22;5269;51.146;16.986;2023-04-25T15:45:05;11.70;1.00
10443;DHT22;5269;51.146;16.986;2023-04-25T15:47:32;11.40;1.00
10443;DHT22;5269;51.146;16.986;2023-04-25T15:50:00;11.00;99.90
10443;DHT22;5269;51.146;16.986;2023-04-25T15:52:27;10.60;1.00
10443;DHT22;5269;51.146;16.986;2023-04-25T15:54:54;10.40;99.90
10443;DHT22;5269;51.146;16.986;2023-04-25T15:57:20;10.40;1.00
10443;DHT22;5269;51.146;16.986;2023-04-25T15:59:48;10.30;1.00
10443;DHT22;5269;51.146;16.986;2023-04-25T16:02:17;10.40;1.00
10443;DHT22;5269;51.146;16.986;2023-04-25T16:04:44;10.50;99.90
10443;DHT22;5269;51.146;16.986;2023-04-25T16:07:12;10.60;99.90
10443;DHT22;5269;51.146;16.986;2023-04-25T16:09:39;10.60;99.90
10443;DHT22;5269;51.146;16.986;2023-04-25T16:12:10;10.70;60.00
10443;DHT22;5269;51.146;16.986;2023-04-25T16:14:37;10.70;1.00
10443;DHT22;5269;51.146;16.986;2023-04-25T16:17:04;10.70;1.00
10443;DHT22;5269;51.146;16.986;2023-04-25T16:19:32;10.80;1.00
10443;DHT22;5269;51.146;16.986;2023-04-25T16:21:59;10.70;1.00
10443;DHT22;5269;51.146;16.986;2023-04-25T16:24:26;10.70;99.90
10443;DHT22;5269;51.146;16.986;2023-04-25T16:26:54;10.70;99.90
10443;DHT22;5269;51.146;16.986;2023-04-25T16:29:21;10.70;1.00
10443;DHT22;5269;51.146;16.986;2023-04-25T16:31:51;10.70;99.90
10443;DHT22;5269;51.146;16.986;2023-04-25T16:34:18;10.50;99.90
10443;DHT22;5269;51.146;16.986;2023-04-25T16:36:47;10.40;99.90
10443;DHT22;5269;51.146;16.986;2023-04-25T16:39:14;10.40;99.90